Trout River, New York
Current Conditions -  °F | °C
As of 4:53 AM on Saturday 01 Nov 2014 (Local Time) from KMSS Reporting Station
Overcast Overcast  
Wind Chill: 30°   Ceiling: 5000
Heat Index: 37°   Visibility: 10mi
Dew Point: 26°   Wind: 10mph
Humidity: 65%   Direction: 20°NNE
Pressure: 30.08"   Gusts: NA
Location:  44.9516°N, 74.3293°W
Report Text: KMSS 010853Z AUTO 02009KT 10SM OVC050 03/M03 A3008 RMK AO2 SLP189 T00281033 56004
Loading
Personal Weather Stations






























Interactive Weather Map
Tropical Storm Tracking
New forecast layout! Learn more

10-Day Weather Forecast

Advertisements
Track Severe Weather on mobile